Time;durP1;ratioP1;P1;durP2;ratioP2;P2;SDS_P1;SDS_P2;PMS_P1;PMS_P2;Temp;Humidity;BMP_temperature;BMP_pressure;BME280_temperature;BME280_humidity;BME280_pressure;Samples;Min_cycle;Max_cycle;Signal;HPM_P1;HPM_P2
2021/08/13 00:02:11;;;;;;;11.45;9.40;;;;;;;;;;5072472;28;20689;-83
2021/08/13 00:04:38;;;;;;;11.00;9.90;;;;;;;;;;5072075;28;20386;-80
2021/08/13 00:07:04;;;;;;;10.93;9.77;;;;;;;;;;5053913;28;20879;-78
2021/08/13 00:09:30;;;;;;;11.43;9.73;;;;;;;;;;5053228;28;20511;-79
2021/08/13 00:11:56;;;;;;;11.10;9.93;;;;;;;;;;5071981;28;20382;-80
2021/08/13 00:14:22;;;;;;;11.15;9.95;;;;;;;;;;5071861;28;20492;-81
2021/08/13 00:16:48;;;;;;;11.38;10.27;;;;;;;;;;5053466;28;20401;-79
2021/08/13 00:19:14;;;;;;;10.63;9.63;;;;;;;;;;5071213;28;20847;-79
2021/08/13 00:21:41;;;;;;;12.10;10.80;;;;;;;;;;5053896;28;20504;-83
2021/08/13 00:24:07;;;;;;;11.85;10.65;;;;;;;;;;5072073;28;20401;-81
2021/08/13 00:26:33;;;;;;;12.15;10.93;;;;;;;;;;5071722;28;20851;-83
2021/08/13 00:28:59;;;;;;;11.77;10.67;;;;;;;;;;5053052;28;20366;-84
2021/08/13 00:31:25;;;;;;;12.37;10.90;;;;;;;;;;5071945;28;20726;-83
2021/08/13 00:33:51;;;;;;;11.02;10.00;;;;;;;;;;5071484;28;20370;-79
2021/08/13 00:36:17;;;;;;;11.63;10.43;;;;;;;;;;5071570;28;21800;-81
2021/08/13 00:38:43;;;;;;;11.52;10.40;;;;;;;;;;5070699;28;20805;-81
2021/08/13 00:41:09;;;;;;;11.93;10.77;;;;;;;;;;5071552;28;20457;-82
2021/08/13 00:43:35;;;;;;;11.88;10.55;;;;;;;;;;5053181;28;20393;-80
2021/08/13 00:46:01;;;;;;;12.00;10.77;;;;;;;;;;5071302;28;20762;-81
2021/08/13 00:48:27;;;;;;;12.17;10.97;;;;;;;;;;5070774;28;20368;-81
2021/08/13 00:50:53;;;;;;;12.80;10.80;;;;;;;;;;5071098;28;20370;-83
2021/08/13 00:53:19;;;;;;;12.73;11.10;;;;;;;;;;5071316;28;20392;-81
2021/08/13 00:55:48;;;;;;;12.80;11.50;;;;;;;;;;5071028;28;20389;-79
2021/08/13 00:58:15;;;;;;;17.85;12.32;;;;;;;;;;5070877;28;20459;-80
2021/08/13 01:00:41;;;;;;;12.55;11.23;;;;;;;;;;5052767;28;20382;-82
2021/08/13 01:03:07;;;;;;;11.93;10.93;;;;;;;;;;5070996;28;20359;-80
2021/08/13 01:05:33;;;;;;;13.20;10.60;;;;;;;;;;5071014;28;20377;-80
2021/08/13 01:07:59;;;;;;;14.70;11.82;;;;;;;;;;5070656;28;20389;-80
2021/08/13 01:10:25;;;;;;;11.65;10.45;;;;;;;;;;5070546;28;20438;-79
2021/08/13 01:13:10;;;;;;;12.07;10.90;;;;;;;;;;5053103;28;20387;-83
2021/08/13 01:15:39;;;;;;;11.90;10.77;;;;;;;;;;5070876;28;20878;-83
2021/08/13 01:18:09;;;;;;;12.40;11.10;;;;;;;;;;5052007;28;20394;-80
2021/08/13 01:20:50;;;;;;;12.85;11.13;;;;;;;;;;5070902;28;20386;-82
2021/08/13 01:23:18;;;;;;;12.60;11.32;;;;;;;;;;5070750;28;20382;-81
2021/08/13 01:25:49;;;;;;;12.18;11.00;;;;;;;;;;5070349;28;20385;-80
2021/08/13 01:28:28;;;;;;;13.15;10.93;;;;;;;;;;5052318;28;20404;-81
2021/08/13 01:30:54;;;;;;;11.82;10.73;;;;;;;;;;5070666;28;20393;-80
2021/08/13 01:33:20;;;;;;;12.65;11.23;;;;;;;;;;5070606;28;20382;-81
2021/08/13 01:35:47;;;;;;;12.57;11.27;;;;;;;;;;5070401;28;20446;-84
2021/08/13 01:38:16;;;;;;;15.68;11.43;;;;;;;;;;5069889;28;20458;-80
2021/08/13 01:40:46;;;;;;;12.67;11.47;;;;;;;;;;5052340;28;20408;-81
2021/08/13 01:43:13;;;;;;;12.48;11.27;;;;;;;;;;5070405;28;20385;-80
2021/08/13 01:45:39;;;;;;;15.00;11.93;;;;;;;;;;5070194;28;20373;-83
2021/08/13 01:48:05;;;;;;;12.48;11.27;;;;;;;;;;5069827;28;20377;-82
2021/08/13 01:50:31;;;;;;;12.73;11.30;;;;;;;;;;5070051;28;20451;-82
2021/08/13 01:52:58;;;;;;;12.77;11.48;;;;;;;;;;5069980;28;20434;-80
2021/08/13 01:55:24;;;;;;;12.75;11.55;;;;;;;;;;5052334;28;20468;-78
2021/08/13 01:57:50;;;;;;;13.27;11.50;;;;;;;;;;5069887;28;20459;-80
2021/08/13 02:00:17;;;;;;;13.00;11.68;;;;;;;;;;5070016;28;20375;-81
2021/08/13 02:02:43;;;;;;;12.57;11.35;;;;;;;;;;5069897;28;20398;-80
2021/08/13 02:05:10;;;;;;;13.77;12.10;;;;;;;;;;5051829;28;20465;-82
2021/08/13 02:07:38;;;;;;;13.55;12.27;;;;;;;;;;5069876;28;20366;-84
2021/08/13 02:10:06;;;;;;;13.50;12.17;;;;;;;;;;5069543;28;20465;-79
2021/08/13 02:12:32;;;;;;;13.20;11.93;;;;;;;;;;5070030;28;20378;-81
2021/08/13 02:14:58;;;;;;;13.70;12.10;;;;;;;;;;5069513;28;20358;-84
2021/08/13 02:17:27;;;;;;;13.23;12.03;;;;;;;;;;5069447;28;20401;-81
2021/08/13 02:19:59;;;;;;;12.48;11.27;;;;;;;;;;5069218;28;20367;-80
2021/08/13 02:22:25;;;;;;;13.80;12.50;;;;;;;;;;5068793;28;20374;-83
2021/08/13 02:24:51;;;;;;;12.47;11.37;;;;;;;;;;5051677;28;20721;-81
2021/08/13 02:27:18;;;;;;;12.93;11.82;;;;;;;;;;5069464;28;20481;-84
2021/08/13 02:29:44;;;;;;;13.60;12.30;;;;;;;;;;5068950;28;20362;-82
2021/08/13 02:32:11;;;;;;;13.18;11.88;;;;;;;;;;5051486;28;20864;-81
2021/08/13 02:34:37;;;;;;;14.13;12.65;;;;;;;;;;5051135;28;20384;-81
2021/08/13 02:37:23;;;;;;;13.57;12.25;;;;;;;;;;5069164;28;20394;-82
2021/08/13 02:39:53;;;;;;;13.80;12.50;;;;;;;;;;5068664;28;20396;-80
2021/08/13 02:42:22;;;;;;;14.07;12.40;;;;;;;;;;5069127;28;20461;-82
2021/08/13 02:44:52;;;;;;;13.75;12.30;;;;;;;;;;5050856;28;20381;-82
2021/08/13 02:47:19;;;;;;;14.13;12.68;;;;;;;;;;5051178;28;20382;-80
2021/08/13 02:49:54;;;;;;;13.15;12.00;;;;;;;;;;5068907;28;20450;-82
2021/08/13 02:52:20;;;;;;;13.23;11.93;;;;;;;;;;5051185;28;20759;-79
2021/08/13 02:54:47;;;;;;;13.32;12.13;;;;;;;;;;5069162;28;20366;-80
2021/08/13 02:57:14;;;;;;;12.45;11.23;;;;;;;;;;5068832;28;20401;-82
2021/08/13 02:59:41;;;;;;;13.23;12.00;;;;;;;;;;5068512;28;20740;-81
2021/08/13 03:02:07;;;;;;;14.45;12.95;;;;;;;;;;5068643;28;20963;-81
2021/08/13 03:04:34;;;;;;;14.50;12.52;;;;;;;;;;5069011;28;20382;-84
2021/08/13 03:07:01;;;;;;;13.43;12.13;;;;;;;;;;5068794;28;20374;-80
2021/08/13 03:09:27;;;;;;;13.48;12.20;;;;;;;;;;5068462;28;20366;-82
2021/08/13 03:11:54;;;;;;;13.93;12.27;;;;;;;;;;5050439;28;20428;-84
2021/08/13 03:14:21;;;;;;;13.68;12.27;;;;;;;;;;5068716;28;20378;-82
2021/08/13 03:16:50;;;;;;;12.70;11.57;;;;;;;;;;5068543;28;20875;-81
2021/08/13 03:19:16;;;;;;;14.48;12.98;;;;;;;;;;5068385;28;20744;-83
2021/08/13 03:21:42;;;;;;;13.20;11.82;;;;;;;;;;5068571;28;20406;-83
2021/08/13 03:24:09;;;;;;;13.35;12.02;;;;;;;;;;5050697;28;20366;-81
2021/08/13 03:26:35;;;;;;;13.75;12.45;;;;;;;;;;5050638;28;20729;-82
2021/08/13 03:29:01;;;;;;;12.55;11.45;;;;;;;;;;5050317;28;20385;-82
2021/08/13 03:31:30;;;;;;;13.45;12.20;;;;;;;;;;5068607;28;20374;-85
2021/08/13 03:33:56;;;;;;;13.68;12.38;;;;;;;;;;5051730;28;20370;-83
2021/08/13 03:36:22;;;;;;;12.50;11.40;;;;;;;;;;5072651;28;20381;-83
2021/08/13 03:38:48;;;;;;;13.20;11.90;;;;;;;;;;5054025;28;20709;-84
2021/08/13 03:41:17;;;;;;;13.02;11.82;;;;;;;;;;5072551;28;20376;-83
2021/08/13 03:43:43;;;;;;;12.52;11.32;;;;;;;;;;5072453;28;20452;-84
2021/08/13 03:46:09;;;;;;;13.27;11.35;;;;;;;;;;5072537;28;20366;-83
2021/08/13 03:48:35;;;;;;;13.00;11.90;;;;;;;;;;5053620;28;20382;-80
2021/08/13 03:51:01;;;;;;;12.82;11.57;;;;;;;;;;5072343;28;20374;-80
2021/08/13 03:53:27;;;;;;;12.77;11.47;;;;;;;;;;5072424;28;20875;-84
2021/08/13 03:55:53;;;;;;;12.98;11.68;;;;;;;;;;5054065;28;20464;-80
2021/08/13 03:58:19;;;;;;;11.65;10.65;;;;;;;;;;5072072;28;20440;-84
2021/08/13 10:39:13;;;;;;;7.97;5.60;;;;;;;;;;5039717;28;20406;-82
2021/08/13 10:41:40;;;;;;;8.43;5.73;;;;;;;;;;5045688;28;21488;-80
2021/08/13 10:44:11;;;;;;;8.05;5.95;;;;;;;;;;5030738;28;20883;-83
2021/08/13 10:46:38;;;;;;;8.50;6.13;;;;;;;;;;5044985;28;20376;-84
2021/08/13 10:49:05;;;;;;;6.32;5.20;;;;;;;;;;5047095;28;20411;-85
2021/08/13 10:51:33;;;;;;;7.85;5.28;;;;;;;;;;5034105;28;20380;-77
2021/08/13 10:54:06;;;;;;;8.77;5.10;;;;;;;;;;5048610;28;20400;-81
2021/08/13 10:56:42;;;;;;;7.13;5.45;;;;;;;;;;5048662;28;20376;-82
2021/08/13 10:59:08;;;;;;;7.95;5.10;;;;;;;;;;5046779;28;20390;-78
2021/08/13 11:01:34;;;;;;;8.35;5.25;;;;;;;;;;5046872;28;20367;-82
2021/08/13 11:04:00;;;;;;;6.65;5.10;;;;;;;;;;5033700;28;20483;-82
2021/08/13 11:06:41;;;;;;;5.38;4.88;;;;;;;;;;5035443;28;20383;-79
2021/08/13 11:09:09;;;;;;;8.53;5.27;;;;;;;;;;5033208;28;20399;-82
2021/08/13 11:11:47;;;;;;;9.10;5.67;;;;;;;;;;5033778;28;20741;-82
2021/08/13 11:14:26;;;;;;;9.82;5.57;;;;;;;;;;5046321;28;20449;-80
2021/08/13 11:16:53;;;;;;;7.68;5.25;;;;;;;;;;5044776;28;20419;-81
2021/08/13 11:19:19;;;;;;;6.78;5.13;;;;;;;;;;5045935;28;20837;-81
2021/08/13 11:21:48;;;;;;;6.88;5.15;;;;;;;;;;5034351;28;20382;-80
2021/08/13 11:24:15;;;;;;;8.20;5.53;;;;;;;;;;5046638;28;20388;-78
2021/08/13 11:26:50;;;;;;;7.00;4.90;;;;;;;;;;5045645;28;20383;-81
2021/08/13 11:29:33;;;;;;;7.60;5.70;;;;;;;;;;5043688;28;20446;-80
2021/08/13 11:32:07;;;;;;;8.25;5.25;;;;;;;;;;5046351;28;20425;-83
2021/08/13 11:34:50;;;;;;;6.57;5.20;;;;;;;;;;5043826;28;20964;-81
2021/08/13 11:37:31;;;;;;;6.57;5.30;;;;;;;;;;5046701;28;20402;-82
2021/08/13 11:39:58;;;;;;;7.30;5.57;;;;;;;;;;5041369;28;20371;-80
2021/08/13 11:42:31;;;;;;;7.20;5.43;;;;;;;;;;5044932;28;20466;-84
2021/08/13 11:44:57;;;;;;;9.77;5.90;;;;;;;;;;5047751;28;20384;-78
2021/08/13 11:47:23;;;;;;;10.13;5.63;;;;;;;;;;5029099;28;20486;-82
2021/08/13 11:49:49;;;;;;;11.07;6.35;;;;;;;;;;5046681;28;20418;-80
2021/08/13 11:52:22;;;;;;;9.52;6.47;;;;;;;;;;5046951;28;20740;-83
2021/08/13 11:54:49;;;;;;;8.05;5.68;;;;;;;;;;5027208;28;20463;-81
2021/08/13 11:57:19;;;;;;;9.93;6.78;;;;;;;;;;5051367;28;20427;-82
2021/08/13 11:59:46;;;;;;;9.65;6.72;;;;;;;;;;5051505;28;20459;-81
2021/08/13 12:02:13;;;;;;;10.05;6.93;;;;;;;;;;5051087;28;20928;-81
2021/08/13 12:04:39;;;;;;;9.18;7.55;;;;;;;;;;5050668;28;21176;-83
2021/08/13 12:07:06;;;;;;;11.10;7.00;;;;;;;;;;5052101;28;20368;-84
2021/08/13 12:09:41;;;;;;;9.50;7.20;;;;;;;;;;5050723;28;20386;-79
2021/08/13 12:12:08;;;;;;;8.82;6.60;;;;;;;;;;5050943;28;20380;-81
2021/08/13 12:14:34;;;;;;;9.35;6.93;;;;;;;;;;5051545;28;20364;-86
2021/08/13 12:17:00;;;;;;;10.02;7.68;;;;;;;;;;5052106;28;20410;-83
2021/08/13 12:19:26;;;;;;;10.45;7.90;;;;;;;;;;5051315;28;20761;-80
2021/08/13 12:21:52;;;;;;;9.63;8.02;;;;;;;;;;5050633;28;20368;-81
2021/08/13 12:24:28;;;;;;;10.23;8.05;;;;;;;;;;5052076;28;20413;-82
2021/08/13 12:26:58;;;;;;;9.48;7.55;;;;;;;;;;5049211;28;20403;-84
2021/08/13 12:29:25;;;;;;;9.90;7.30;;;;;;;;;;5051967;28;20479;-83
2021/08/13 12:31:57;;;;;;;9.93;7.53;;;;;;;;;;5051557;28;20456;-84
2021/08/13 12:34:24;;;;;;;9.30;7.50;;;;;;;;;;5051943;28;20376;-80
2021/08/13 12:37:07;;;;;;;8.23;7.43;;;;;;;;;;5048894;28;20405;-82
2021/08/13 12:39:34;;;;;;;7.88;7.07;;;;;;;;;;5050791;28;20395;-82
2021/08/13 12:42:00;;;;;;;7.93;6.90;;;;;;;;;;5049727;28;20710;-81
2021/08/13 12:44:26;;;;;;;9.30;7.20;;;;;;;;;;5050243;28;20375;-86
2021/08/13 12:46:53;;;;;;;9.32;7.10;;;;;;;;;;5051426;28;20931;-87
2021/08/13 12:49:19;;;;;;;9.95;7.07;;;;;;;;;;5052205;28;20360;-82
2021/08/13 12:51:45;;;;;;;11.20;7.50;;;;;;;;;;5033284;28;20873;-79
2021/08/13 12:54:31;;;;;;;10.60;6.97;;;;;;;;;;5050981;28;20380;-87
2021/08/13 12:56:57;;;;;;;9.52;6.85;;;;;;;;;;5051104;28;20403;-82
2021/08/13 12:59:31;;;;;;;8.77;6.30;;;;;;;;;;5051496;28;20372;-82
2021/08/13 13:01:57;;;;;;;12.02;6.90;;;;;;;;;;5032834;28;20718;-83
2021/08/13 13:04:35;;;;;;;9.40;6.77;;;;;;;;;;5051087;28;20417;-85
2021/08/13 13:07:02;;;;;;;11.52;6.88;;;;;;;;;;5050810;28;20390;-84
2021/08/13 13:09:29;;;;;;;7.85;6.63;;;;;;;;;;5050645;28;20379;-79
2021/08/13 13:12:11;;;;;;;8.10;7.30;;;;;;;;;;5050458;28;20376;-81
2021/08/13 13:14:37;;;;;;;8.05;6.82;;;;;;;;;;5050531;28;20379;-81
2021/08/13 13:17:07;;;;;;;8.98;6.88;;;;;;;;;;5050570;28;20473;-83
2021/08/13 13:19:33;;;;;;;12.27;7.05;;;;;;;;;;5033182;28;20737;-84
2021/08/13 13:22:22;;;;;;;10.02;7.25;;;;;;;;;;5049956;28;20368;-83
2021/08/13 13:25:06;;;;;;;8.80;6.93;;;;;;;;;;5050910;28;20431;-83
2021/08/13 13:27:48;;;;;;;8.90;6.88;;;;;;;;;;5050489;28;20853;-82
2021/08/13 13:30:32;;;;;;;14.18;7.25;;;;;;;;;;5051031;28;20449;-85
2021/08/13 13:33:02;;;;;;;9.05;6.90;;;;;;;;;;5048996;28;20379;-83
2021/08/13 13:35:29;;;;;;;8.43;6.83;;;;;;;;;;5032299;28;20754;-83
2021/08/13 13:37:56;;;;;;;13.83;6.67;;;;;;;;;;5032466;28;20514;-83
2021/08/13 13:40:22;;;;;;;14.13;7.30;;;;;;;;;;5050693;28;20368;-81
2021/08/13 13:42:48;;;;;;;13.85;6.72;;;;;;;;;;5049893;28;20534;-81
2021/08/13 13:45:17;;;;;;;8.43;6.07;;;;;;;;;;5033904;28;20871;-79
2021/08/13 13:47:43;;;;;;;7.30;6.60;;;;;;;;;;5032896;28;20392;-78
2021/08/13 13:50:09;;;;;;;7.60;6.80;;;;;;;;;;5030488;28;20385;-81
2021/08/13 13:52:35;;;;;;;7.15;6.45;;;;;;;;;;5029658;28;20377;-83
2021/08/13 13:55:01;;;;;;;6.80;6.10;;;;;;;;;;5046493;28;20374;-84
2021/08/13 13:57:27;;;;;;;8.95;6.15;;;;;;;;;;5050055;28;20404;-79
2021/08/13 13:59:53;;;;;;;8.43;6.10;;;;;;;;;;5049910;28;20360;-79
2021/08/13 14:02:19;;;;;;;9.30;5.80;;;;;;;;;;5049712;28;20949;-80
2021/08/13 14:04:45;;;;;;;8.63;6.38;;;;;;;;;;5031864;28;20375;-80
2021/08/13 14:07:12;;;;;;;7.87;5.93;;;;;;;;;;5034341;28;20407;-86
2021/08/13 14:09:38;;;;;;;11.00;5.75;;;;;;;;;;5041937;28;20512;-86
2021/08/13 14:12:04;;;;;;;11.45;5.50;;;;;;;;;;5059202;28;20364;-84
2021/08/13 14:14:30;;;;;;;11.68;6.00;;;;;;;;;;5055920;28;20433;-85
2021/08/13 14:16:56;;;;;;;6.30;5.53;;;;;;;;;;5060068;28;20875;-84
2021/08/13 14:19:22;;;;;;;9.40;5.40;;;;;;;;;;5036136;28;20448;-79
2021/08/13 14:21:48;;;;;;;6.70;5.63;;;;;;;;;;5054598;28;20862;-85
2021/08/13 14:24:14;;;;;;;13.85;6.00;;;;;;;;;;5052055;28;20390;-82
2021/08/13 14:26:40;;;;;;;11.23;6.53;;;;;;;;;;5056161;28;20453;-80
2021/08/13 14:29:06;;;;;;;7.85;6.38;;;;;;;;;;5059729;28;20366;-84
2021/08/13 14:31:32;;;;;;;7.03;5.75;;;;;;;;;;5050059;28;20379;-80
2021/08/13 14:33:58;;;;;;;8.27;5.67;;;;;;;;;;5050421;28;20858;-83
2021/08/13 14:36:24;;;;;;;5.90;5.30;;;;;;;;;;5054663;28;20390;-83
2021/08/13 14:38:51;;;;;;;7.80;5.22;;;;;;;;;;5029497;28;20493;-82
2021/08/13 14:41:17;;;;;;;7.90;5.32;;;;;;;;;;5054611;28;20477;-83
2021/08/13 14:43:43;;;;;;;8.63;5.77;;;;;;;;;;5049836;28;20541;-81
2021/08/13 14:46:08;;;;;;;6.80;5.80;;;;;;;;;;5053836;28;20379;-85
2021/08/13 14:48:37;;;;;;;5.80;5.10;;;;;;;;;;5052903;28;20380;-83
2021/08/13 14:51:03;;;;;;;9.23;5.50;;;;;;;;;;5033693;28;20392;-81
2021/08/13 14:53:38;;;;;;;6.28;5.40;;;;;;;;;;5048804;28;20367;-80
2021/08/13 14:56:04;;;;;;;10.63;5.65;;;;;;;;;;5028656;28;20446;-84
2021/08/13 14:58:31;;;;;;;11.48;6.03;;;;;;;;;;5049827;28;20462;-85
2021/08/13 15:03:48;;;;;;;8.52;5.63;;;;;;;;;;5049041;28;20380;-83
2021/08/13 15:09:37;;;;;;;7.38;5.63;;;;;;;;;;5037354;28;20446;-83
2021/08/13 15:12:04;;;;;;;8.90;5.85;;;;;;;;;;5028375;28;20416;-81
2021/08/13 15:14:30;;;;;;;7.13;6.20;;;;;;;;;;5043700;28;20406;-83
2021/08/13 15:16:56;;;;;;;7.78;5.75;;;;;;;;;;5045027;28;20750;-84
2021/08/13 15:19:24;;;;;;;8.60;5.68;;;;;;;;;;5047349;28;20386;-83
2021/08/13 15:21:50;;;;;;;8.43;5.72;;;;;;;;;;5042125;28;20423;-83
2021/08/13 15:24:16;;;;;;;8.13;5.78;;;;;;;;;;5040640;28;20384;-83
2021/08/13 15:26:42;;;;;;;8.18;6.25;;;;;;;;;;5037966;28;20381;-83
2021/08/13 15:29:09;;;;;;;10.03;5.87;;;;;;;;;;5045662;28;20387;-83
2021/08/13 15:31:36;;;;;;;10.10;5.93;;;;;;;;;;5051286;28;20379;-83
2021/08/13 15:34:02;;;;;;;10.20;6.40;;;;;;;;;;5031689;28;21015;-83
2021/08/13 15:36:28;;;;;;;11.37;6.27;;;;;;;;;;5050915;28;20459;-84
2021/08/13 15:38:54;;;;;;;10.35;6.25;;;;;;;;;;5048725;28;20525;-83
2021/08/13 15:41:20;;;;;;;8.97;5.63;;;;;;;;;;5042536;28;20399;-83
2021/08/13 15:43:46;;;;;;;6.95;5.80;;;;;;;;;;5045948;28;20406;-84
2021/08/13 15:46:12;;;;;;;7.43;6.28;;;;;;;;;;5043176;28;20383;-82
2021/08/13 15:48:38;;;;;;;8.40;6.30;;;;;;;;;;5047655;28;20379;-84
2021/08/13 15:51:04;;;;;;;6.93;5.90;;;;;;;;;;5046276;28;20474;-86
2021/08/13 15:53:32;;;;;;;8.73;6.43;;;;;;;;;;5048176;28;20380;-81
2021/08/13 15:55:59;;;;;;;7.65;6.15;;;;;;;;;;5047972;28;20372;-82
2021/08/13 15:58:27;;;;;;;9.77;5.95;;;;;;;;;;5036216;28;20419;-85
2021/08/13 16:00:53;;;;;;;8.32;6.30;;;;;;;;;;5035040;28;20455;-82
2021/08/13 16:03:19;;;;;;;10.50;6.38;;;;;;;;;;5049698;28;20402;-83
2021/08/13 16:05:45;;;;;;;11.40;6.60;;;;;;;;;;5045416;28;20390;-86
2021/08/13 16:08:11;;;;;;;7.15;6.05;;;;;;;;;;5045493;28;20376;-82
2021/08/13 16:10:37;;;;;;;7.53;6.38;;;;;;;;;;5032110;28;20734;-85
2021/08/13 16:13:04;;;;;;;8.00;6.50;;;;;;;;;;5047488;28;20403;-82
2021/08/13 16:15:30;;;;;;;6.82;6.05;;;;;;;;;;5054483;28;20456;-81
2021/08/13 16:17:56;;;;;;;6.63;5.93;;;;;;;;;;5038010;28;20403;-84
2021/08/13 16:20:22;;;;;;;8.50;6.40;;;;;;;;;;5038662;28;20477;-83
2021/08/13 16:22:49;;;;;;;7.90;6.20;;;;;;;;;;5033664;28;20873;-85
2021/08/13 16:25:15;;;;;;;8.48;6.07;;;;;;;;;;5052975;28;20376;-82
2021/08/13 16:27:41;;;;;;;9.27;6.10;;;;;;;;;;5052500;28;20734;-85
2021/08/13 16:30:08;;;;;;;8.80;6.45;;;;;;;;;;5055670;28;20374;-83
2021/08/13 16:32:38;;;;;;;6.45;5.72;;;;;;;;;;5050430;28;20385;-83
2021/08/13 16:35:05;;;;;;;10.60;6.38;;;;;;;;;;5054207;28;20385;-86
2021/08/13 16:37:32;;;;;;;7.60;6.00;;;;;;;;;;5045603;28;20925;-82
2021/08/13 16:39:58;;;;;;;11.38;6.80;;;;;;;;;;5051364;28;20407;-83
2021/08/13 16:42:24;;;;;;;10.73;6.43;;;;;;;;;;5054235;28;20437;-83
2021/08/13 16:44:50;;;;;;;9.38;6.10;;;;;;;;;;5044315;28;20385;-82
2021/08/13 16:47:16;;;;;;;8.25;5.45;;;;;;;;;;5057229;28;20751;-87
2021/08/13 16:49:41;;;;;;;11.25;6.90;;;;;;;;;;5061619;28;20418;-82
2021/08/13 16:52:12;;;;;;;9.83;6.77;;;;;;;;;;5059705;28;20959;-84
2021/08/13 16:54:39;;;;;;;12.63;6.50;;;;;;;;;;5054278;28;20406;-88
2021/08/13 16:57:05;;;;;;;12.60;6.72;;;;;;;;;;5061899;28;20482;-83
2021/08/13 16:59:31;;;;;;;8.75;6.80;;;;;;;;;;5054876;28;21044;-83
2021/08/13 17:01:57;;;;;;;8.68;6.70;;;;;;;;;;5053538;28;20772;-84
2021/08/13 17:04:23;;;;;;;7.77;6.10;;;;;;;;;;5037568;28;20948;-85
2021/08/13 17:06:49;;;;;;;7.95;6.47;;;;;;;;;;5033280;28;20384;-83
2021/08/13 17:09:16;;;;;;;7.60;6.03;;;;;;;;;;5048674;28;20410;-83
2021/08/13 17:11:42;;;;;;;14.65;6.75;;;;;;;;;;5045211;28;20384;-82
2021/08/13 17:14:10;;;;;;;18.58;7.63;;;;;;;;;;5032125;28;20379;-82
2021/08/13 17:16:37;;;;;;;10.63;6.85;;;;;;;;;;5034836;28;20821;-81
2021/08/13 17:19:03;;;;;;;9.13;7.50;;;;;;;;;;5051139;28;20415;-81
2021/08/13 17:21:29;;;;;;;73.70;11.20;;;;;;;;;;5053032;28;20408;-84
2021/08/13 17:23:55;;;;;;;68.63;11.38;;;;;;;;;;5049098;28;20440;-84
2021/08/13 17:26:21;;;;;;;25.55;7.95;;;;;;;;;;5045566;28;20376;-84
2021/08/13 17:28:47;;;;;;;20.52;8.48;;;;;;;;;;5046211;28;20383;-81
2021/08/13 17:31:13;;;;;;;12.00;7.43;;;;;;;;;;5055151;28;20393;-82
2021/08/13 17:33:39;;;;;;;23.33;8.68;;;;;;;;;;5058178;28;20383;-84
2021/08/13 17:36:05;;;;;;;10.70;7.53;;;;;;;;;;5052242;28;20374;-83
2021/08/13 17:38:31;;;;;;;11.57;7.65;;;;;;;;;;5048123;28;20403;-83
2021/08/13 17:40:57;;;;;;;15.25;7.88;;;;;;;;;;5058145;28;20912;-81
2021/08/13 17:43:23;;;;;;;246.57;28.52;;;;;;;;;;5040517;28;20414;-83
2021/08/13 17:45:49;;;;;;;61.45;11.23;;;;;;;;;;5042994;28;20867;-82
2021/08/13 17:48:15;;;;;;;18.30;7.80;;;;;;;;;;5066563;28;20366;-84
2021/08/13 17:50:41;;;;;;;15.30;7.37;;;;;;;;;;5052089;28;20943;-86
2021/08/13 17:53:09;;;;;;;11.85;7.88;;;;;;;;;;5069236;28;20373;-83
2021/08/13 17:55:35;;;;;;;12.32;7.88;;;;;;;;;;5070071;28;20466;-83
2021/08/13 17:58:01;;;;;;;8.07;7.23;;;;;;;;;;5070123;28;20939;-85
2021/08/13 18:00:27;;;;;;;8.20;7.18;;;;;;;;;;5070102;28;20373;-86
2021/08/13 18:02:53;;;;;;;8.32;7.22;;;;;;;;;;5069885;28;20377;-85
2021/08/13 18:05:19;;;;;;;9.80;7.20;;;;;;;;;;5070095;28;20374;-84
2021/08/13 18:07:45;;;;;;;8.27;7.47;;;;;;;;;;5051490;28;20378;-87
2021/08/13 18:10:11;;;;;;;9.65;7.60;;;;;;;;;;5069858;28;20899;-86
2021/08/13 18:12:37;;;;;;;7.60;6.57;;;;;;;;;;5051728;28;20394;-83
2021/08/13 18:15:04;;;;;;;11.95;7.50;;;;;;;;;;5051617;28;20390;-85
2021/08/13 18:17:30;;;;;;;8.10;7.28;;;;;;;;;;5069446;28;20398;-85
2021/08/13 18:19:56;;;;;;;9.48;7.57;;;;;;;;;;5069404;28;20440;-83
2021/08/13 18:22:22;;;;;;;7.50;6.80;;;;;;;;;;5051635;28;20382;-85
2021/08/13 18:24:48;;;;;;;12.52;7.93;;;;;;;;;;5069309;28;20453;-83
2021/08/13 18:27:14;;;;;;;26.02;9.52;;;;;;;;;;5068749;28;20732;-86
2021/08/13 18:29:40;;;;;;;10.10;7.65;;;;;;;;;;5049338;28;20477;-84
2021/08/13 18:32:06;;;;;;;16.60;7.80;;;;;;;;;;5049518;28;20379;-79
2021/08/13 18:34:32;;;;;;;8.95;7.20;;;;;;;;;;5049370;28;20387;-83
2021/08/13 18:36:58;;;;;;;8.88;7.70;;;;;;;;;;5031309;28;20390;-82
2021/08/13 18:39:24;;;;;;;8.05;7.25;;;;;;;;;;5056535;28;20372;-85
2021/08/13 18:41:50;;;;;;;7.90;7.10;;;;;;;;;;5057449;28;20388;-84
2021/08/13 18:44:16;;;;;;;10.30;8.30;;;;;;;;;;5056926;28;20380;-84
2021/08/13 18:46:43;;;;;;;12.02;8.45;;;;;;;;;;5061301;28;20475;-88
2021/08/13 18:49:09;;;;;;;9.55;8.50;;;;;;;;;;5049822;28;20391;-82
2021/08/13 18:51:35;;;;;;;11.43;8.88;;;;;;;;;;5052700;28;20374;-87
2021/08/13 18:54:01;;;;;;;9.90;8.30;;;;;;;;;;5060474;28;20370;-81
2021/08/13 18:56:27;;;;;;;11.20;8.15;;;;;;;;;;5060119;28;20445;-80
2021/08/13 18:58:55;;;;;;;11.03;8.07;;;;;;;;;;5054069;28;20917;-83
2021/08/13 19:01:22;;;;;;;9.07;7.90;;;;;;;;;;5054711;28;20405;-84
2021/08/13 19:03:48;;;;;;;12.23;8.30;;;;;;;;;;5058792;28;20429;-82
2021/08/13 19:06:14;;;;;;;9.00;7.97;;;;;;;;;;5039271;28;20383;-82
2021/08/13 19:08:40;;;;;;;10.73;8.73;;;;;;;;;;5038862;28;20399;-82
2021/08/13 19:11:06;;;;;;;9.73;8.60;;;;;;;;;;5057563;28;20882;-85
2021/08/13 19:13:35;;;;;;;9.20;8.30;;;;;;;;;;5059182;28;20374;-79
2021/08/13 19:16:01;;;;;;;9.73;7.90;;;;;;;;;;5039783;28;20388;-82
2021/08/13 19:18:27;;;;;;;14.45;9.00;;;;;;;;;;5038297;28;20528;-81
2021/08/13 19:20:53;;;;;;;14.20;8.88;;;;;;;;;;5059156;28;20973;-80
2021/08/13 19:23:19;;;;;;;12.45;8.43;;;;;;;;;;5057890;28;20391;-84
2021/08/13 19:25:45;;;;;;;9.88;7.97;;;;;;;;;;5057470;28;20756;-83
2021/08/13 19:28:11;;;;;;;10.65;8.05;;;;;;;;;;5057106;28;20384;-84
2021/08/13 19:30:38;;;;;;;12.68;8.23;;;;;;;;;;5039687;28;20889;-84
2021/08/13 19:33:04;;;;;;;9.57;7.78;;;;;;;;;;5040331;28;20725;-85
2021/08/13 19:35:30;;;;;;;10.00;7.85;;;;;;;;;;5059980;28;20431;-84
2021/08/13 19:37:56;;;;;;;11.77;7.90;;;;;;;;;;5058037;28;20399;-83
2021/08/13 19:40:22;;;;;;;10.80;8.13;;;;;;;;;;5057493;28;20379;-85
2021/08/13 19:42:48;;;;;;;10.50;8.27;;;;;;;;;;5059454;28;20469;-81
2021/08/13 19:45:14;;;;;;;10.18;7.70;;;;;;;;;;5058666;28;20914;-84
2021/08/13 19:47:40;;;;;;;11.38;8.10;;;;;;;;;;5059659;28;20947;-81
2021/08/13 19:50:11;;;;;;;10.10;8.47;;;;;;;;;;5057149;28;20778;-85
2021/08/13 19:52:37;;;;;;;12.75;8.20;;;;;;;;;;5058101;28;20358;-83
2021/08/13 19:55:03;;;;;;;12.77;8.90;;;;;;;;;;5058237;28;20468;-81
2021/08/13 19:57:29;;;;;;;12.00;9.93;;;;;;;;;;5036546;28;20719;-82
2021/08/13 19:59:55;;;;;;;11.00;9.20;;;;;;;;;;5037252;28;20435;-80
2021/08/13 20:02:21;;;;;;;13.77;9.80;;;;;;;;;;5059624;28;20881;-86
2021/08/13 20:04:47;;;;;;;10.00;8.63;;;;;;;;;;5057763;28;20390;-81
2021/08/13 20:07:13;;;;;;;13.23;8.90;;;;;;;;;;5039435;28;20379;-81
2021/08/13 20:09:39;;;;;;;13.60;8.60;;;;;;;;;;5057131;28;20442;-83
2021/08/13 20:12:05;;;;;;;12.98;8.30;;;;;;;;;;5055829;28;20884;-81
2021/08/13 20:14:32;;;;;;;11.02;8.65;;;;;;;;;;5048525;28;20379;-82
2021/08/13 20:16:58;;;;;;;12.25;7.90;;;;;;;;;;5059315;28;20422;-84
2021/08/13 20:19:24;;;;;;;11.43;9.32;;;;;;;;;;5060726;28;20406;-78
2021/08/13 20:21:50;;;;;;;13.65;8.70;;;;;;;;;;5062112;28;20758;-83
2021/08/13 20:24:16;;;;;;;11.93;9.13;;;;;;;;;;5062494;28;20457;-81
2021/08/13 20:26:42;;;;;;;11.02;9.27;;;;;;;;;;5061343;28;20379;-83
2021/08/13 20:29:08;;;;;;;11.65;8.52;;;;;;;;;;5060395;28;20473;-84
2021/08/13 20:31:34;;;;;;;12.57;9.18;;;;;;;;;;5061385;28;21170;-81
2021/08/13 20:34:00;;;;;;;11.50;8.93;;;;;;;;;;5060693;28;20866;-80
2021/08/13 20:36:26;;;;;;;9.95;8.93;;;;;;;;;;5044815;28;20374;-81
2021/08/13 20:38:52;;;;;;;10.80;8.45;;;;;;;;;;5043920;28;20850;-82
2021/08/13 20:41:18;;;;;;;10.65;8.80;;;;;;;;;;5042788;28;20469;-82
2021/08/13 20:43:44;;;;;;;10.80;8.95;;;;;;;;;;5062931;28;20366;-82
2021/08/13 20:46:10;;;;;;;9.30;8.35;;;;;;;;;;5060878;28;20425;-82
2021/08/13 20:48:36;;;;;;;9.47;8.47;;;;;;;;;;5062250;28;20376;-85
2021/08/13 20:51:02;;;;;;;11.38;9.05;;;;;;;;;;5061656;28;20371;-82
2021/08/13 20:53:28;;;;;;;9.88;8.27;;;;;;;;;;5064601;28;20366;-81
2021/08/13 20:55:54;;;;;;;9.18;8.27;;;;;;;;;;5074405;28;20442;-84
2021/08/13 20:58:20;;;;;;;9.85;8.85;;;;;;;;;;5084514;28;20411;-83
2021/08/13 21:00:46;;;;;;;11.37;8.47;;;;;;;;;;5084535;28;20499;-81
2021/08/13 21:03:13;;;;;;;9.77;8.73;;;;;;;;;;5084557;28;20389;-81
2021/08/13 21:05:39;;;;;;;14.05;8.88;;;;;;;;;;5082769;28;20370;-81
2021/08/13 21:08:05;;;;;;;13.23;9.13;;;;;;;;;;5088261;28;20433;-81
2021/08/13 21:10:31;;;;;;;11.82;8.90;;;;;;;;;;5071468;28;20921;-83
2021/08/13 21:12:57;;;;;;;11.27;9.27;;;;;;;;;;5061067;28;20397;-85
2021/08/13 21:15:23;;;;;;;13.50;9.02;;;;;;;;;;5051026;28;20434;-83
2021/08/13 21:17:50;;;;;;;11.07;9.20;;;;;;;;;;5033101;28;20396;-80